Time;durP1;ratioP1;P1;durP2;ratioP2;P2;SDS_P1;SDS_P2;PMS_P1;PMS_P2;Temp;Humidity;BMP_temperature;BMP_pressure;BME280_temperature;BME280_humidity;BME280_pressure;Samples;Min_cycle;Max_cycle;Signal;HPM_P1;HPM_P2
2022/10/19 00:00:44;;;;;;;11.55;4.22;;;9.70;99.90;;;;;;4930804;29;20048;-71
2022/10/19 00:03:10;;;;;;;12.80;5.47;;;9.70;99.90;;;;;;4929805;29;20060;-70
2022/10/19 00:05:35;;;;;;;7.47;3.75;;;9.70;99.90;;;;;;4931590;29;20394;-70
2022/10/19 00:08:01;;;;;;;12.02;4.50;;;9.70;99.90;;;;;;4946279;29;20050;-70
2022/10/19 00:10:27;;;;;;;10.85;5.25;;;9.70;99.90;;;;;;4931162;29;20505;-70
2022/10/19 00:12:52;;;;;;;8.35;4.93;;;9.70;99.90;;;;;;4929798;29;20103;-70
2022/10/19 00:15:18;;;;;;;13.80;4.55;;;9.70;99.90;;;;;;4930768;29;20502;-70
2022/10/19 00:17:45;;;;;;;7.57;4.22;;;9.70;99.90;;;;;;4931439;29;20459;-70
2022/10/19 00:20:11;;;;;;;15.25;4.68;;;9.70;99.90;;;;;;4930066;29;20079;-70
2022/10/19 00:22:39;;;;;;;21.55;5.50;;;9.70;99.90;;;;;;4929881;29;20048;-70
2022/10/19 00:25:05;;;;;;;16.45;5.63;;;9.70;99.90;;;;;;4931381;29;20048;-70
2022/10/19 00:27:31;;;;;;;20.50;5.10;;;9.70;99.90;;;;;;4928852;29;20386;-70
2022/10/19 00:29:57;;;;;;;11.55;5.80;;;9.70;99.90;;;;;;4929914;29;20059;-70
2022/10/19 00:32:23;;;;;;;4.20;1.70;;;9.70;99.90;;;;;;4930099;29;20056;-70
2022/10/19 00:34:49;;;;;;;14.20;5.47;;;9.70;99.90;;;;;;4927707;29;20133;-71
2022/10/19 00:37:14;;;;;;;28.17;6.32;;;9.60;99.90;;;;;;4930844;29;20047;-70
2022/10/19 00:39:40;;;;;;;11.38;5.88;;;9.70;99.90;;;;;;4930714;29;20464;-71
2022/10/19 00:42:09;;;;;;;11.35;5.45;;;9.70;99.90;;;;;;4927738;29;20048;-70
2022/10/19 00:44:35;;;;;;;16.95;5.78;;;9.70;99.90;;;;;;4930592;29;20075;-70
2022/10/19 00:47:06;;;;;;;13.93;6.05;;;9.70;99.90;;;;;;4928340;29;20089;-70
2022/10/19 00:49:38;;;;;;;14.48;5.82;;;9.70;99.90;;;;;;4929236;29;20047;-71
2022/10/19 00:52:12;;;;;;;20.50;6.07;;;9.70;99.90;;;;;;4929480;29;20885;-70
2022/10/19 00:54:39;;;;;;;22.52;6.50;;;9.70;99.90;;;;;;4929294;29;20055;-70
2022/10/19 00:57:06;;;;;;;11.52;5.35;;;9.80;99.90;;;;;;4929712;29;20039;-71
2022/10/19 00:59:33;;;;;;;13.77;5.18;;;9.90;99.90;;;;;;4935449;29;20058;-71
2022/10/19 01:02:01;;;;;;;14.43;5.55;;;9.80;99.90;;;;;;4930934;28;20063;-70
2022/10/19 01:04:29;;;;;;;19.60;6.68;;;9.80;99.90;;;;;;4928669;29;20087;-71
2022/10/19 01:06:56;;;;;;;19.57;6.03;;;9.80;99.90;;;;;;4929709;29;20086;-71
2022/10/19 01:09:22;;;;;;;11.85;2.75;;;10.10;99.90;;;;;;4916064;29;20295;-70
2022/10/19 01:11:56;;;;;;;9.80;5.45;;;9.80;99.90;;;;;;4929583;29;20196;-71
2022/10/19 01:14:33;;;;;;;17.15;6.18;;;9.90;99.90;;;;;;4928688;29;20051;-71
2022/10/19 01:17:19;;;;;;;10.73;6.28;;;9.90;99.90;;;;;;4928462;29;20055;-70
2022/10/19 01:19:47;;;;;;;13.23;5.53;;;9.90;99.90;;;;;;4927928;29;20101;-70
2022/10/19 01:22:28;;;;;;;15.23;5.00;;;9.90;99.90;;;;;;4928834;29;20394;-71
2022/10/19 01:25:31;;;;;;;18.05;5.32;;;10.10;99.90;;;;;;4933462;29;20142;-71
2022/10/19 01:28:03;;;;;;;14.55;5.85;;;10.00;99.90;;;;;;4928597;29;20056;-70
2022/10/19 01:30:50;;;;;;;13.30;4.95;;;9.90;99.90;;;;;;4928967;29;20052;-70
2022/10/19 01:33:19;;;;;;;12.32;4.93;;;10.00;99.90;;;;;;4929028;29;20063;-70
2022/10/19 01:36:00;;;;;;;5.97;2.83;;;10.00;99.90;;;;;;4928755;29;20127;-71
2022/10/19 01:38:55;;;;;;;9.25;4.18;;;10.00;99.90;;;;;;4925237;29;20040;-70
2022/10/19 01:41:52;;;;;;;32.63;5.82;;;10.00;99.90;;;;;;4926094;29;20193;-70
2022/10/19 01:44:34;;;;;;;14.23;4.18;;;10.30;99.90;;;;;;4909033;29;20064;-70
2022/10/19 01:47:05;;;;;;;12.73;4.93;;;10.00;99.90;;;;;;4932955;29;20078;-71
2022/10/19 01:49:41;;;;;;;16.88;4.32;;;10.00;99.90;;;;;;4932826;29;20058;-70
2022/10/19 01:52:11;;;;;;;10.02;3.38;;;10.00;99.90;;;;;;4932671;29;20501;-70
2022/10/19 01:54:42;;;;;;;14.55;4.65;;;10.00;99.90;;;;;;4931735;29;20048;-70
2022/10/19 01:57:11;;;;;;;16.80;5.25;;;10.00;99.90;;;;;;4932975;29;20404;-71
2022/10/19 01:59:38;;;;;;;13.82;4.18;;;10.00;99.90;;;;;;4922791;29;20441;-71
2022/10/19 02:02:07;;;;;;;17.25;5.15;;;10.10;99.90;;;;;;4932569;29;20062;-71
2022/10/19 02:04:35;;;;;;;10.80;4.53;;;10.00;99.90;;;;;;4931377;29;20052;-71
2022/10/19 02:07:03;;;;;;;14.00;4.97;;;10.60;99.90;;;;;;4932695;29;20063;-70
2022/10/19 02:09:29;;;;;;;7.30;4.35;;;10.30;99.90;;;;;;4932385;29;20201;-70
2022/10/19 02:11:59;;;;;;;12.77;5.53;;;10.40;99.90;;;;;;4931792;29;20059;-70
2022/10/19 02:14:31;;;;;;;18.95;5.45;;;10.20;99.90;;;;;;4932046;29;20086;-71
2022/10/19 02:17:04;;;;;;;7.82;4.00;;;10.20;99.90;;;;;;4931909;29;20559;-70
2022/10/19 02:19:30;;;;;;;9.73;4.80;;;10.30;99.90;;;;;;4916106;29;20119;-70
2022/10/19 02:21:57;;;;;;;11.77;4.60;;;10.20;99.90;;;;;;4931838;29;20449;-70
2022/10/19 02:24:23;;;;;;;10.85;4.78;;;10.20;99.90;;;;;;4933303;29;20504;-70
2022/10/19 02:26:49;;;;;;;10.13;3.47;;;10.30;99.90;;;;;;4930281;29;20051;-70
2022/10/19 02:29:15;;;;;;;10.68;5.07;;;10.30;99.90;;;;;;4931551;29;20633;-70
2022/10/19 02:31:42;;;;;;;7.72;4.70;;;10.30;99.90;;;;;;4931650;29;20512;-71
2022/10/19 02:34:08;;;;;;;9.63;3.92;;;10.30;99.90;;;;;;4931620;29;20043;-70
2022/10/19 02:36:34;;;;;;;10.88;5.07;;;10.30;99.90;;;;;;4932708;29;20055;-70
2022/10/19 02:39:00;;;;;;;17.63;5.25;;;10.30;99.90;;;;;;4931544;29;20055;-70
2022/10/19 02:41:44;;;;;;;23.13;4.93;;;10.50;99.90;;;;;;4932282;29;20048;-71
2022/10/19 02:44:25;;;;;;;12.60;4.35;;;10.40;99.90;;;;;;4930456;29;20054;-71
2022/10/19 02:46:58;;;;;;;8.70;3.42;;;10.40;99.90;;;;;;4931220;29;20838;-70
2022/10/19 02:49:25;;;;;;;21.42;4.85;;;10.40;99.90;;;;;;4932307;29;20060;-70
2022/10/19 02:51:58;;;;;;;23.83;4.43;;;10.40;99.90;;;;;;4932729;29;20129;-70
2022/10/19 02:54:24;;;;;;;12.70;4.57;;;10.40;99.90;;;;;;4931652;29;20044;-70
2022/10/19 02:56:50;;;;;;;7.68;3.80;;;10.40;99.90;;;;;;4931725;29;20444;-71
2022/10/19 02:59:16;;;;;;;11.95;4.45;;;10.40;99.90;;;;;;4934616;29;20047;-70
2022/10/19 03:01:42;;;;;;;7.47;3.67;;;10.40;99.90;;;;;;4939237;28;20056;-70
2022/10/19 03:04:08;;;;;;;14.90;4.75;;;10.40;99.90;;;;;;4947175;29;20052;-70
2022/10/19 03:06:33;;;;;;;6.20;3.95;;;10.40;99.90;;;;;;4931633;29;20420;-70
2022/10/19 03:08:59;;;;;;;8.52;3.60;;;10.30;99.90;;;;;;4931377;29;20594;-70
2022/10/19 03:11:25;;;;;;;11.95;4.03;;;10.40;99.90;;;;;;4931387;29;20393;-71
2022/10/19 03:13:51;;;;;;;11.90;4.07;;;10.30;99.90;;;;;;4930845;29;20079;-70
2022/10/19 03:16:17;;;;;;;8.10;4.10;;;10.30;99.90;;;;;;4930340;29;20412;-71
2022/10/19 03:18:43;;;;;;;2.25;1.10;;;10.30;99.90;;;;;;4931379;29;20059;-70
2022/10/19 03:21:11;;;;;;;13.07;4.28;;;10.20;99.90;;;;;;4932305;29;20479;-70
2022/10/19 03:23:38;;;;;;;11.52;4.22;;;10.20;99.90;;;;;;4930806;29;20063;-70
2022/10/19 03:26:05;;;;;;;6.93;3.63;;;10.20;99.90;;;;;;4931452;29;20047;-70
2022/10/19 03:28:31;;;;;;;13.68;4.18;;;10.20;99.90;;;;;;4930722;29;20059;-71
2022/10/19 03:30:56;;;;;;;14.98;4.93;;;10.20;99.90;;;;;;4929248;29;20509;-71
2022/10/19 03:33:23;;;;;;;28.20;4.55;;;10.20;99.90;;;;;;4930740;29;20047;-70
2022/10/19 03:35:49;;;;;;;8.70;4.18;;;10.30;99.90;;;;;;4930885;29;20106;-71
2022/10/19 03:38:14;;;;;;;14.18;4.60;;;10.10;99.90;;;;;;4930324;29;20535;-71
2022/10/19 03:40:40;;;;;;;17.42;4.28;;;10.20;99.90;;;;;;4930728;29;20051;-70
2022/10/19 03:43:06;;;;;;;8.95;3.22;;;10.10;99.90;;;;;;4930267;29;20095;-70
2022/10/19 03:45:31;;;;;;;9.45;3.75;;;10.10;99.90;;;;;;4931477;29;20111;-71
2022/10/19 03:47:57;;;;;;;15.15;4.43;;;10.10;99.90;;;;;;4929672;29;20051;-71
2022/10/19 03:50:23;;;;;;;6.93;3.60;;;10.00;99.90;;;;;;4930869;29;20044;-70
2022/10/19 03:52:48;;;;;;;18.50;4.10;;;10.10;99.90;;;;;;4931779;29;20054;-70
2022/10/19 03:55:15;;;;;;;9.55;4.07;;;10.10;99.90;;;;;;4930129;29;20056;-71
2022/10/19 03:57:41;;;;;;;6.75;3.72;;;10.10;99.90;;;;;;4930655;29;20114;-71
2022/10/19 04:00:08;;;;;;;8.93;4.03;;;10.00;99.90;;;;;;4946427;29;20055;-70
2022/10/19 04:02:34;;;;;;;7.93;4.25;;;10.00;99.90;;;;;;4916516;29;20044;-71
2022/10/19 04:05:00;;;;;;;10.88;3.83;;;9.90;99.90;;;;;;4927954;29;20099;-70
2022/10/19 04:07:26;;;;;;;8.85;3.67;;;9.90;99.90;;;;;;4930148;29;20044;-70
2022/10/19 04:09:52;;;;;;;7.47;3.92;;;10.00;99.90;;;;;;4925942;29;20043;-70
2022/10/19 04:12:18;;;;;;;15.77;4.93;;;9.90;99.90;;;;;;4928383;29;20400;-70
2022/10/19 04:14:44;;;;;;;9.50;3.40;;;9.90;99.90;;;;;;4943566;28;20051;-70
2022/10/19 04:17:10;;;;;;;7.35;4.30;;;9.90;99.90;;;;;;4927918;29;20058;-70
2022/10/19 04:19:35;;;;;;;13.23;5.45;;;9.90;99.90;;;;;;4913483;29;20039;-70
2022/10/19 04:22:01;;;;;;;8.82;4.22;;;9.90;99.90;;;;;;4927311;29;20445;-70
2022/10/19 04:24:27;;;;;;;10.85;4.45;;;10.00;99.90;;;;;;4929037;29;20123;-70
2022/10/19 04:26:54;;;;;;;12.48;4.30;;;9.90;99.90;;;;;;4928708;29;20048;-70
2022/10/19 04:29:22;;;;;;;8.77;3.30;;;9.90;99.90;;;;;;4944613;29;20087;-70
2022/10/19 04:31:52;;;;;;;13.73;4.65;;;9.90;99.90;;;;;;4929289;29;20144;-70
2022/10/19 04:34:18;;;;;;;12.13;4.30;;;10.20;99.90;;;;;;4929869;29;20082;-70
2022/10/19 04:36:43;;;;;;;12.13;3.53;;;9.90;99.90;;;;;;4928818;29;20040;-70
2022/10/19 04:39:10;;;;;;;9.07;3.22;;;10.00;99.90;;;;;;4928703;29;20644;-70
2022/10/19 04:41:36;;;;;;;10.57;3.67;;;9.90;99.90;;;;;;4929523;29;20055;-70
2022/10/19 04:44:05;;;;;;;5.53;2.75;;;10.40;99.90;;;;;;4928380;29;20154;-71
2022/10/19 04:46:31;;;;;;;10.38;3.70;;;9.90;99.90;;;;;;4928960;29;20050;-70
2022/10/19 04:49:00;;;;;;;14.73;3.55;;;9.90;99.90;;;;;;4945476;29;20052;-71
2022/10/19 04:51:26;;;;;;;6.63;3.63;;;9.90;99.90;;;;;;4929098;29;20044;-70
2022/10/19 04:53:52;;;;;;;8.80;4.28;;;10.00;99.90;;;;;;4945302;29;20059;-70
2022/10/19 04:56:20;;;;;;;14.23;3.60;;;9.90;99.90;;;;;;4929425;29;20381;-70
2022/10/19 04:58:47;;;;;;;20.70;5.05;;;9.90;99.90;;;;;;4929894;29;20047;-70
2022/10/19 05:01:17;;;;;;;15.07;4.35;;;9.90;99.90;;;;;;4943116;28;20052;-70
2022/10/19 05:03:43;;;;;;;6.63;3.55;;;9.90;99.90;;;;;;4928537;29;20057;-71
2022/10/19 05:06:10;;;;;;;7.47;3.28;;;9.80;99.90;;;;;;4928344;29;20051;-70
2022/10/19 05:08:37;;;;;;;6.47;3.47;;;9.90;99.90;;;;;;4927952;29;20043;-70
2022/10/19 05:11:13;;;;;;;8.88;4.45;;;9.80;99.90;;;;;;4930346;29;20048;-70
2022/10/19 05:13:39;;;;;;;10.15;3.70;;;9.80;99.90;;;;;;4928044;29;20055;-71
2022/10/19 05:16:06;;;;;;;12.32;3.50;;;9.70;99.90;;;;;;4930194;29;20090;-70
2022/10/19 05:18:33;;;;;;;8.57;3.85;;;9.80;99.90;;;;;;4930678;29;20419;-71
2022/10/19 05:21:10;;;;;;;9.77;4.05;;;9.90;99.90;;;;;;4933007;29;20051;-71
2022/10/19 05:23:37;;;;;;;8.13;3.63;;;9.80;99.90;;;;;;4922624;29;20039;-70
2022/10/19 05:26:08;;;;;;;14.93;3.75;;;9.70;99.90;;;;;;4934475;29;20063;-71
2022/10/19 05:28:35;;;;;;;12.88;4.25;;;9.70;99.90;;;;;;4921050;29;20117;-70
2022/10/19 05:31:08;;;;;;;12.23;5.35;;;9.70;99.90;;;;;;4932795;29;20053;-70
2022/10/19 05:33:34;;;;;;;12.85;4.25;;;9.70;99.90;;;;;;4932749;29;20051;-71
2022/10/19 05:36:31;;;;;;;11.05;4.95;;;9.70;99.90;;;;;;4934046;29;20047;-70
2022/10/19 05:38:57;;;;;;;11.75;4.43;;;9.70;99.90;;;;;;4922017;29;20143;-70
2022/10/19 05:41:24;;;;;;;26.42;6.07;;;9.70;99.90;;;;;;4931963;29;20405;-71
2022/10/19 05:43:55;;;;;;;14.85;4.90;;;9.70;99.90;;;;;;4932522;29;20099;-70
2022/10/19 05:46:22;;;;;;;15.45;5.13;;;9.60;99.90;;;;;;4933769;29;20047;-71
2022/10/19 05:48:47;;;;;;;15.95;5.25;;;9.70;99.90;;;;;;4933261;29;20050;-70
2022/10/19 05:51:16;;;;;;;27.85;5.38;;;9.70;99.90;;;;;;4932073;29;20052;-70
2022/10/19 05:53:41;;;;;;;15.07;5.00;;;9.60;99.90;;;;;;4929886;29;20123;-70
2022/10/19 05:56:11;;;;;;;14.45;5.18;;;9.70;99.90;;;;;;4932093;29;20130;-71
2022/10/19 05:58:37;;;;;;;23.67;5.82;;;9.70;99.90;;;;;;4932476;29;20055;-70
2022/10/19 06:01:03;;;;;;;20.75;4.80;;;9.70;99.90;;;;;;4930344;29;20102;-70
2022/10/19 06:03:29;;;;;;;20.35;4.45;;;9.70;99.90;;;;;;4940088;29;20471;-70
2022/10/19 06:05:56;;;;;;;16.23;4.38;;;9.70;99.90;;;;;;4932893;29;20575;-70
2022/10/19 06:08:23;;;;;;;14.80;4.30;;;9.70;99.90;;;;;;4933151;29;20052;-70
2022/10/19 06:10:49;;;;;;;17.77;4.88;;;9.70;99.90;;;;;;4930242;29;20715;-70
2022/10/19 06:13:16;;;;;;;22.25;5.43;;;9.80;99.90;;;;;;4930165;29;20508;-70
2022/10/19 06:15:42;;;;;;;20.88;4.32;;;9.80;99.90;;;;;;4929979;29;20055;-70
2022/10/19 06:18:09;;;;;;;15.30;4.50;;;9.80;99.90;;;;;;4930918;29;20441;-70
2022/10/19 06:20:39;;;;;;;20.38;4.53;;;9.90;99.90;;;;;;4931766;29;20130;-70
2022/10/19 06:23:06;;;;;;;27.98;5.50;;;9.90;99.90;;;;;;4929773;29;20047;-71
2022/10/19 06:25:33;;;;;;;23.30;4.85;;;9.90;99.90;;;;;;4930815;29;20076;-70
2022/10/19 06:27:59;;;;;;;21.00;4.50;;;9.90;99.90;;;;;;4930816;29;20064;-70
2022/10/19 06:30:25;;;;;;;16.20;3.40;;;9.90;99.90;;;;;;4927901;28;20051;-70
2022/10/19 06:32:51;;;;;;;27.38;6.72;;;9.90;99.90;;;;;;4927319;29;20051;-70
2022/10/19 06:35:17;;;;;;;16.23;4.10;;;9.80;99.90;;;;;;4942644;29;20526;-70
2022/10/19 06:37:44;;;;;;;21.40;4.63;;;9.90;99.90;;;;;;4928259;29;20059;-70
2022/10/19 06:40:12;;;;;;;18.77;5.43;;;9.90;99.90;;;;;;4928688;29;20047;-70
2022/10/19 06:42:40;;;;;;;16.58;4.47;;;10.00;99.90;;;;;;4930565;29;20465;-71
2022/10/19 06:45:08;;;;;;;26.48;5.25;;;10.00;99.90;;;;;;4930631;29;20135;-70
2022/10/19 06:47:35;;;;;;;23.70;4.82;;;10.00;99.90;;;;;;4932112;29;20047;-70
2022/10/19 06:50:05;;;;;;;30.70;5.68;;;10.00;99.90;;;;;;4932853;29;20086;-70
2022/10/19 06:52:31;;;;;;;21.00;4.85;;;10.40;99.90;;;;;;4930976;29;20160;-70
2022/10/19 06:54:57;;;;;;;25.45;5.90;;;10.00;99.90;;;;;;4931421;29;20241;-71
2022/10/19 06:57:23;;;;;;;23.70;4.85;;;10.10;99.90;;;;;;4931809;29;20054;-70
2022/10/19 06:59:48;;;;;;;19.20;4.13;;;10.10;99.90;;;;;;4933897;29;20045;-70
2022/10/19 07:02:14;;;;;;;16.27;4.20;;;10.10;99.90;;;;;;4946969;28;20073;-70
2022/10/19 07:04:39;;;;;;;29.67;5.63;;;10.10;99.90;;;;;;4932117;29;20073;-71
2022/10/19 07:07:06;;;;;;;13.82;4.15;;;10.20;99.90;;;;;;4933045;29;20087;-71
2022/10/19 07:09:31;;;;;;;35.38;5.28;;;10.20;99.90;;;;;;4930943;29;20050;-71
2022/10/19 07:11:57;;;;;;;20.77;4.07;;;10.30;99.90;;;;;;4931083;29;20048;-70
2022/10/19 07:14:23;;;;;;;13.95;2.53;;;10.40;99.90;;;;;;4930669;29;20036;-70
2022/10/19 07:16:50;;;;;;;19.63;4.70;;;10.40;99.90;;;;;;4942437;29;20496;-70
2022/10/19 07:19:16;;;;;;;30.25;5.43;;;10.30;99.90;;;;;;4920989;28;20075;-70
2022/10/19 07:21:43;;;;;;;20.67;4.43;;;10.50;99.90;;;;;;4946678;29;20054;-70
2022/10/19 07:24:09;;;;;;;23.67;5.38;;;10.40;99.90;;;;;;4931991;29;20555;-70
2022/10/19 07:26:35;;;;;;;18.52;5.18;;;10.50;99.90;;;;;;4931183;29;20047;-71
2022/10/19 07:29:02;;;;;;;15.55;5.90;;;10.70;99.90;;;;;;4931316;29;20060;-70
2022/10/19 07:31:28;;;;;;;26.95;5.18;;;10.60;99.90;;;;;;4927960;29;20055;-70
2022/10/19 07:33:56;;;;;;;27.88;4.53;;;10.60;99.90;;;;;;4927974;29;20801;-70
2022/10/19 07:36:23;;;;;;;20.60;5.68;;;10.70;99.90;;;;;;4929929;29;20048;-71
2022/10/19 07:38:49;;;;;;;25.77;4.28;;;10.70;99.90;;;;;;4928987;29;20513;-71
2022/10/19 07:41:17;;;;;;;13.93;3.80;;;10.90;99.90;;;;;;4944689;29;20112;-70
2022/10/19 07:43:44;;;;;;;25.63;5.35;;;10.90;99.90;;;;;;4944425;29;20051;-71
2022/10/19 07:46:13;;;;;;;16.02;4.50;;;10.80;99.90;;;;;;4930003;29;20059;-71
2022/10/19 07:48:40;;;;;;;21.17;4.65;;;11.10;99.90;;;;;;4928984;29;20083;-71
2022/10/19 07:51:08;;;;;;;12.32;3.58;;;10.80;99.90;;;;;;4927986;29;20620;-70
2022/10/19 07:53:34;;;;;;;20.43;4.90;;;11.20;99.90;;;;;;4930969;29;20527;-70
2022/10/19 07:56:12;;;;;;;13.90;4.88;;;11.00;99.90;;;;;;4930470;29;20299;-71
2022/10/19 07:58:37;;;;;;;14.48;4.18;;;11.10;99.90;;;;;;4931008;29;20044;-70
2022/10/19 08:01:04;;;;;;;25.30;4.93;;;11.20;99.90;;;;;;4930142;29;20411;-71
2022/10/19 08:03:32;;;;;;;14.40;3.97;;;11.10;99.90;;;;;;4946020;29;20059;-70
2022/10/19 08:06:07;;;;;;;18.60;4.68;;;11.30;99.90;;;;;;4930295;29;20126;-70
2022/10/19 08:08:33;;;;;;;18.05;4.88;;;11.20;99.90;;;;;;4926121;29;20637;-70
2022/10/19 08:11:26;;;;;;;14.55;4.07;;;11.30;99.90;;;;;;4931004;29;20061;-71
2022/10/19 08:13:53;;;;;;;27.20;4.57;;;11.50;99.90;;;;;;4927359;29;20162;-71
2022/10/19 08:16:28;;;;;;;22.80;4.55;;;11.40;99.90;;;;;;4932047;29;20047;-71
2022/10/19 08:19:03;;;;;;;19.27;5.03;;;11.30;99.90;;;;;;4929559;29;20054;-70
2022/10/19 08:21:30;;;;;;;14.30;5.70;;;11.50;99.90;;;;;;4929470;29;20673;-70
2022/10/19 08:23:56;;;;;;;18.75;4.50;;;11.60;99.90;;;;;;4930626;29;20044;-70
2022/10/19 08:26:23;;;;;;;13.85;4.90;;;11.50;99.90;;;;;;4929571;29;20055;-71
2022/10/19 08:28:49;;;;;;;24.05;5.22;;;11.50;99.90;;;;;;4929030;29;20051;-70
2022/10/19 08:31:21;;;;;;;11.13;3.70;;;11.70;99.90;;;;;;4928798;29;20519;-70
2022/10/19 08:33:49;;;;;;;22.92;4.72;;;11.60;99.90;;;;;;4921712;29;20048;-71
2022/10/19 08:36:14;;;;;;;12.10;4.03;;;11.60;99.90;;;;;;4931037;29;20055;-70
2022/10/19 08:38:43;;;;;;;22.20;4.40;;;11.70;99.90;;;;;;4927433;29;20404;-71
2022/10/19 08:41:33;;;;;;;21.55;4.05;;;11.60;99.90;;;;;;4928717;29;20603;-71
2022/10/19 08:44:09;;;;;;;12.73;4.38;;;11.70;99.90;;;;;;4920738;29;20036;-70
2022/10/19 08:47:02;;;;;;;14.07;5.25;;;11.80;99.90;;;;;;4929040;29;20512;-71
2022/10/19 08:49:30;;;;;;;17.17;3.97;;;11.90;99.90;;;;;;4912815;29;20064;-70
2022/10/19 08:52:04;;;;;;;19.15;4.75;;;12.00;99.90;;;;;;4929589;29;20046;-70
2022/10/19 08:54:58;;;;;;;15.02;4.88;;;12.00;99.90;;;;;;4930721;29;20527;-70
2022/10/19 08:57:40;;;;;;;11.43;3.25;;;11.90;99.90;;;;;;4919212;29;20412;-70
2022/10/19 09:00:06;;;;;;;17.30;5.32;;;12.00;99.90;;;;;;4943311;28;20066;-70
2022/10/19 09:03:02;;;;;;;17.13;4.80;;;12.00;99.90;;;;;;4945219;28;20055;-70
2022/10/19 09:05:56;;;;;;;16.50;3.58;;;12.00;99.90;;;;;;4945235;28;20051;-70
2022/10/19 09:08:22;;;;;;;8.52;3.60;;;12.00;99.90;;;;;;4930013;29;20083;-71
2022/10/19 09:10:53;;;;;;;14.35;5.32;;;12.10;99.90;;;;;;4930270;29;20082;-70
2022/10/19 09:13:32;;;;;;;14.88;3.67;;;12.10;99.90;;;;;;4928227;29;20055;-71
2022/10/19 09:15:59;;;;;;;27.63;6.22;;;12.10;99.90;;;;;;4928541;29;20083;-71
2022/10/19 09:18:31;;;;;;;14.55;2.78;;;12.10;99.90;;;;;;4942623;28;20040;-71
2022/10/19 09:21:08;;;;;;;14.75;3.70;;;12.10;99.90;;;;;;4929842;29;20051;-71
2022/10/19 09:23:57;;;;;;;16.75;3.65;;;12.20;99.90;;;;;;4928776;29;20058;-70
2022/10/19 09:26:28;;;;;;;14.77;4.18;;;12.20;99.90;;;;;;4927263;29;20043;-70
2022/10/19 09:29:04;;;;;;;21.83;4.00;;;12.30;99.90;;;;;;4928469;29;20142;-71
2022/10/19 09:31:33;;;;;;;15.45;3.63;;;12.10;99.90;;;;;;4927730;29;20047;-70
2022/10/19 09:34:27;;;;;;;9.55;3.53;;;12.20;99.90;;;;;;4943038;28;20051;-70
2022/10/19 09:36:57;;;;;;;18.25;3.60;;;12.30;99.90;;;;;;4928073;29;20051;-71
2022/10/19 09:39:28;;;;;;;12.70;4.38;;;12.30;99.90;;;;;;4928982;29;20126;-71
2022/10/19 09:42:20;;;;;;;14.52;3.17;;;12.30;99.90;;;;;;4928830;29;20505;-71
2022/10/19 09:44:49;;;;;;;9.70;3.05;;;12.40;99.90;;;;;;4925919;29;20052;-71
2022/10/19 09:47:34;;;;;;;19.20;3.78;;;12.30;99.90;;;;;;4920159;29;20050;-71
2022/10/19 09:50:21;;;;;;;18.33;3.60;;;12.40;99.90;;;;;;4925987;29;20094;-71
2022/10/19 09:52:54;;;;;;;17.80;3.40;;;12.40;99.90;;;;;;4927236;29;20051;-71
2022/10/19 09:55:34;;;;;;;11.50;4.03;;;12.40;99.90;;;;;;4930007;29;20504;-71
2022/10/19 09:58:14;;;;;;;11.00;3.38;;;12.40;99.90;;;;;;4929056;29;20059;-71
2022/10/19 10:00:53;;;;;;;11.45;2.70;;;12.40;99.90;;;;;;4939379;29;20044;-71
2022/10/19 10:03:34;;;;;;;15.98;3.40;;;12.40;99.90;;;;;;4932468;29;20047;-70
2022/10/19 10:06:11;;;;;;;7.65;3.13;;;12.50;99.90;;;;;;4932904;29;20063;-71
2022/10/19 10:08:43;;;;;;;21.73;3.67;;;12.40;99.90;;;;;;4929065;29;20051;-70
2022/10/19 10:11:12;;;;;;;18.42;3.40;;;12.50;99.90;;;;;;4931606;29;20063;-71
2022/10/19 10:13:50;;;;;;;11.32;3.42;;;12.40;99.90;;;;;;4931669;29;20098;-71
2022/10/19 10:16:18;;;;;;;14.55;4.30;;;12.50;99.90;;;;;;4927673;29;20083;-71
2022/10/19 10:18:54;;;;;;;15.93;3.53;;;12.60;99.90;;;;;;4927978;29;20489;-71
2022/10/19 10:21:27;;;;;;;13.90;3.58;;;12.50;99.90;;;;;;4947562;29;20138;-70
2022/10/19 10:24:15;;;;;;;11.55;4.13;;;12.40;99.90;;;;;;4929413;29;20128;-70
2022/10/19 10:26:48;;;;;;;16.77;4.97;;;12.50;99.90;;;;;;4929232;29;20158;-69
2022/10/19 10:29:21;;;;;;;14.80;5.28;;;12.60;99.90;;;;;;4930526;29;20051;-71
2022/10/19 10:32:04;;;;;;;11.02;4.65;;;12.80;99.90;;;;;;4937783;29;20098;-70
2022/10/19 10:34:32;;;;;;;13.15;5.88;;;12.70;99.90;;;;;;4930087;29;20071;-70
2022/10/19 10:36:59;;;;;;;18.88;4.53;;;12.90;99.90;;;;;;4932314;29;20047;-71
2022/10/19 10:39:27;;;;;;;14.25;4.45;;;12.70;99.90;;;;;;4932417;29;20060;-70
2022/10/19 10:41:54;;;;;;;17.23;5.68;;;12.80;99.90;;;;;;4930979;29;20249;-70
2022/10/19 10:44:25;;;;;;;11.10;5.63;;;12.60;99.90;;;;;;4931441;29;20127;-70
2022/10/19 10:47:02;;;;;;;14.18;5.93;;;12.60;99.90;;;;;;4930901;29;20571;-71
2022/10/19 10:49:37;;;;;;;17.17;5.28;;;12.60;99.90;;;;;;4932679;29;20074;-70
2022/10/19 10:52:09;;;;;;;14.55;5.30;;;12.60;99.90;;;;;;4931901;29;20051;-70
2022/10/19 10:54:35;;;;;;;30.63;5.85;;;12.60;99.90;;;;;;4932073;29;20148;-70
2022/10/19 10:57:12;;;;;;;12.13;4.75;;;12.60;99.90;;;;;;4947550;28;20047;-70
2022/10/19 10:59:55;;;;;;;16.05;5.80;;;12.90;99.90;;;;;;4938956;29;20061;-70
2022/10/19 11:02:34;;;;;;;24.17;5.82;;;12.70;99.90;;;;;;4931997;28;20048;-70
2022/10/19 11:05:03;;;;;;;;;;;12.60;99.90;;;;;;4931877;29;20060;-70
2022/10/19 11:07:32;;;;;;;15.70;5.15;;;12.60;99.90;;;;;;4932532;29;19929;-70
2022/10/19 11:10:02;;;;;;;23.25;5.18;;;12.70;99.90;;;;;;4931315;29;20522;-70
2022/10/19 11:12:36;;;;;;;13.45;5.60;;;12.70;99.90;;;;;;4929817;29;20048;-70
2022/10/19 11:15:29;;;;;;;16.23;4.53;;;12.80;99.90;;;;;;4930732;29;20056;-70
2022/10/19 11:18:04;;;;;;;22.48;5.28;;;12.80;99.90;;;;;;4931088;29;20195;-70
2022/10/19 11:20:32;;;;;;;15.43;4.63;;;12.70;99.90;;;;;;4931948;29;20453;-70
2022/10/19 11:23:05;;;;;;;;;;;12.60;99.90;;;;;;4930658;29;20427;-69
2022/10/19 11:25:43;;;;;;;17.02;3.90;;;12.60;99.90;;;;;;4929122;29;20403;-70
2022/10/19 11:28:48;;;;;;;17.40;5.30;;;12.60;99.90;;;;;;4924633;29;20055;-70
2022/10/19 11:31:24;;;;;;;9.23;2.70;;;12.60;99.90;;;;;;4928736;29;20103;-70
2022/10/19 11:34:09;;;;;;;18.25;4.75;;;12.60;99.90;;;;;;4930998;29;20055;-70
2022/10/19 11:37:21;;;;;;;9.48;3.83;;;12.50;99.90;;;;;;4931276;29;20058;-70
2022/10/19 11:39:56;;;;;;;18.05;4.07;;;12.60;99.90;;;;;;4929250;29;20048;-70
2022/10/19 11:42:41;;;;;;;11.43;4.25;;;12.60;99.90;;;;;;4946504;28;20098;-70
2022/10/19 11:45:45;;;;;;;13.63;4.15;;;12.70;99.90;;;;;;4945472;29;20059;-70
2022/10/19 11:48:16;;;;;;;13.38;3.85;;;12.70;99.90;;;;;;4924767;29;20115;-70
2022/10/19 11:51:10;;;;;;;15.30;3.47;;;12.60;99.90;;;;;;4928922;29;20138;-69
2022/10/19 11:53:51;;;;;;;25.10;4.65;;;12.60;99.90;;;;;;4930913;29;20066;-69
2022/10/19 11:57:03;;;;;;;13.70;2.80;;;12.60;99.90;;;;;;4925672;29;20051;-69
2022/10/19 11:59:54;;;;;;;10.70;2.33;;;12.60;99.90;;;;;;4923634;29;20050;-69
2022/10/19 12:02:57;;;;;;;17.02;3.85;;;12.60;99.90;;;;;;4944978;29;20134;-70
2022/10/19 12:05:28;;;;;;;8.68;2.28;;;12.70;99.90;;;;;;4931486;29;20044;-70
2022/10/19 12:08:08;;;;;;;20.08;4.63;;;12.70;99.90;;;;;;4929721;29;20153;-70
2022/10/19 12:11:04;;;;;;;18.52;3.92;;;12.70;99.90;;;;;;4928617;29;20448;-69
2022/10/19 12:13:51;;;;;;;16.27;3.58;;;12.70;99.90;;;;;;4930059;29;20540;-70
2022/10/19 12:16:20;;;;;;;9.88;3.72;;;12.80;99.90;;;;;;4929926;29;20051;-69
2022/10/19 12:18:49;;;;;;;8.98;2.35;;;13.00;99.90;;;;;;4925365;29;20052;-70
2022/10/19 12:21:34;;;;;;;8.10;3.08;;;12.80;99.90;;;;;;4931101;29;20130;-69
2022/10/19 12:24:04;;;;;;;11.52;3.72;;;12.70;99.90;;;;;;4925452;29;20465;-70
2022/10/19 12:26:34;;;;;;;5.72;3.35;;;12.60;99.90;;;;;;4930929;29;20063;-69
2022/10/19 12:29:04;;;;;;;18.27;4.85;;;12.60;99.90;;;;;;4930837;29;20063;-70
2022/10/19 12:31:31;;;;;;;13.40;4.60;;;12.60;99.90;;;;;;4945147;28;20130;-70
2022/10/19 12:34:06;;;;;;;13.55;3.53;;;12.60;99.90;;;;;;4930571;29;20054;-69
2022/10/19 12:36:49;;;;;;;17.83;3.90;;;12.70;99.90;;;;;;4929460;29;20082;-69
2022/10/19 12:39:48;;;;;;;19.80;4.45;;;12.70;99.90;;;;;;4947169;28;20523;-70
2022/10/19 12:42:14;;;;;;;8.07;3.90;;;12.70;99.90;;;;;;4917665;29;20859;-70
2022/10/19 12:44:57;;;;;;;12.50;4.57;;;12.80;99.90;;;;;;4935153;28;20039;-69
2022/10/19 12:47:24;;;;;;;11.38;5.22;;;12.70;99.90;;;;;;4940482;29;20469;-70
2022/10/19 12:49:53;;;;;;;9.52;5.47;;;12.70;99.90;;;;;;4924870;29;20086;-71
2022/10/19 12:52:43;;;;;;;13.82;4.55;;;12.90;99.90;;;;;;4929517;29;20052;-69
2022/10/19 12:55:16;;;;;;;19.50;5.57;;;12.70;99.90;;;;;;4944171;29;20066;-69
2022/10/19 12:57:47;;;;;;;15.90;6.15;;;12.70;99.90;;;;;;4928844;29;20051;-69
2022/10/19 13:00:24;;;;;;;11.50;5.63;;;12.70;99.90;;;;;;4929674;29;20052;-70
2022/10/19 13:03:14;;;;;;;12.23;5.70;;;12.70;99.90;;;;;;4929518;29;20533;-69
2022/10/19 13:05:40;;;;;;;11.18;6.10;;;12.70;99.90;;;;;;4927031;29;20083;-70